createdAt,value
2018-01-14T00:02:01.662Z,24.97
2018-01-14T00:04:29.205Z,23.47
2018-01-14T00:06:56.726Z,23.23
2018-01-14T00:09:24.246Z,27.10
2018-01-14T00:11:51.762Z,26.73
2018-01-14T00:14:19.267Z,24.33
2018-01-14T00:16:46.763Z,24.43
2018-01-14T00:19:14.277Z,20.00
2018-01-14T00:21:41.783Z,24.00
2018-01-14T00:24:09.298Z,30.97
2018-01-14T00:26:36.807Z,24.73
2018-01-14T00:29:04.311Z,23.43
2018-01-14T00:31:31.926Z,21.83
2018-01-14T00:33:59.439Z,25.03
2018-01-14T00:36:26.957Z,23.67
2018-01-14T00:38:54.483Z,31.53
2018-01-14T00:41:21.978Z,25.90
2018-01-14T00:43:49.504Z,26.40
2018-01-14T00:46:17.014Z,23.93
2018-01-14T00:48:44.520Z,22.90
2018-01-14T00:51:12.027Z,24.80
2018-01-14T00:53:39.567Z,30.00
2018-01-14T00:56:07.066Z,27.30
2018-01-14T00:58:34.588Z,24.93
2018-01-14T01:01:02.144Z,25.37
2018-01-14T01:03:29.651Z,23.97
2018-01-14T01:05:57.178Z,27.17
2018-01-14T01:08:24.692Z,25.70
2018-01-14T01:10:52.197Z,26.00
2018-01-14T01:13:19.710Z,36.97
2018-01-14T01:15:47.217Z,41.93
2018-01-14T01:18:14.718Z,23.03
2018-01-14T01:20:42.227Z,24.57
2018-01-14T01:23:09.742Z,24.00
2018-01-14T01:25:37.262Z,24.83
2018-01-14T01:28:04.775Z,21.77
2018-01-14T01:30:32.287Z,22.87
2018-01-14T01:32:59.791Z,23.20
2018-01-14T01:35:27.303Z,28.40
2018-01-14T01:37:54.810Z,22.73
2018-01-14T01:40:22.311Z,23.63
2018-01-14T01:42:49.842Z,23.67
2018-01-14T01:45:17.342Z,21.43
2018-01-14T01:47:44.854Z,20.23
2018-01-14T01:50:12.359Z,20.20
2018-01-14T01:52:39.882Z,22.00
2018-01-14T01:55:07.391Z,21.27
2018-01-14T01:57:34.898Z,19.60
2018-01-14T02:00:02.410Z,23.20
2018-01-14T02:02:29.912Z,22.73
2018-01-14T02:04:57.452Z,23.10
2018-01-14T02:07:24.985Z,23.53
2018-01-14T02:09:52.494Z,21.47
2018-01-14T02:12:20.008Z,19.80
2018-01-14T02:14:47.520Z,23.73
2018-01-14T02:17:15.020Z,19.97
2018-01-14T02:19:42.883Z,20.40
2018-01-14T02:22:10.391Z,19.23
2018-01-14T02:24:37.898Z,21.93
2018-01-14T02:27:05.406Z,23.83
2018-01-14T02:29:32.918Z,22.17
2018-01-14T02:32:00.427Z,18.53
2018-01-14T02:34:27.934Z,20.43
2018-01-14T02:36:55.453Z,19.33
2018-01-14T02:39:22.970Z,22.90
2018-01-14T02:41:50.507Z,22.60
2018-01-14T02:44:18.015Z,21.43
2018-01-14T02:46:45.554Z,21.00
2018-01-14T02:49:13.082Z,21.57
2018-01-14T02:51:40.623Z,17.63
2018-01-14T02:54:08.147Z,18.83
2018-01-14T02:56:35.680Z,22.00
2018-01-14T02:59:03.174Z,19.17
2018-01-14T03:01:30.706Z,19.23
2018-01-14T03:03:58.257Z,22.97
2018-01-14T03:06:25.751Z,20.87
2018-01-14T03:08:53.293Z,23.87
2018-01-14T03:11:20.814Z,22.17
2018-01-14T03:13:48.332Z,20.07
2018-01-14T03:16:15.865Z,24.27
2018-01-14T03:18:43.406Z,24.33
2018-01-14T03:21:10.906Z,22.97
2018-01-14T03:23:38.438Z,25.80
2018-01-14T03:26:05.930Z,24.60
2018-01-14T03:28:33.514Z,28.80
2018-01-14T03:31:01.735Z,28.90
2018-01-14T03:33:29.242Z,26.80
2018-01-14T03:35:56.750Z,28.13
2018-01-14T03:38:24.292Z,26.10
2018-01-14T03:40:51.813Z,25.33
2018-01-14T03:43:19.327Z,25.80
2018-01-14T03:45:46.838Z,26.90
2018-01-14T03:48:14.354Z,29.20
2018-01-14T03:50:41.869Z,27.67
2018-01-14T03:53:09.378Z,26.60
2018-01-14T03:55:36.902Z,27.47
2018-01-14T03:58:04.425Z,28.70
2018-01-14T04:00:31.952Z,29.90
2018-01-14T04:02:59.479Z,29.63
2018-01-14T04:05:26.978Z,27.10
2018-01-14T04:07:54.502Z,27.13
2018-01-14T04:10:21.999Z,29.40
2018-01-14T04:12:49.521Z,29.07
2018-01-14T04:15:17.018Z,28.40
2018-01-14T04:17:44.528Z,27.73
2018-01-14T04:20:12.048Z,26.60
2018-01-14T04:22:39.601Z,27.87
2018-01-14T04:25:07.147Z,25.37
2018-01-14T04:27:34.658Z,26.60
2018-01-14T04:30:02.176Z,27.17
2018-01-14T04:32:29.680Z,25.17
2018-01-14T04:34:57.192Z,27.23
2018-01-14T04:37:24.759Z,26.83
2018-01-14T04:39:52.315Z,26.37
2018-01-14T04:42:19.842Z,24.97
2018-01-14T04:44:47.356Z,25.13
2018-01-14T04:47:14.872Z,23.83
2018-01-14T04:49:42.382Z,24.17
2018-01-14T04:52:09.890Z,27.47
2018-01-14T04:54:37.393Z,24.33
2018-01-14T04:57:04.906Z,24.50
2018-01-14T04:59:32.410Z,26.10
2018-01-14T05:01:59.922Z,27.10
2018-01-14T05:04:27.421Z,27.03
2018-01-14T05:06:54.938Z,25.17
2018-01-14T05:09:22.442Z,23.73
2018-01-14T05:11:49.970Z,26.13
2018-01-14T05:14:17.482Z,29.87
2018-01-14T05:16:45.017Z,31.40
2018-01-14T05:19:12.556Z,31.40
2018-01-14T05:21:40.117Z,30.07
2018-01-14T05:24:07.619Z,31.90
2018-01-14T05:26:35.154Z,30.80
2018-01-14T05:29:02.667Z,39.63
2018-01-14T05:31:30.170Z,34.30
2018-01-14T05:33:57.711Z,39.60
2018-01-14T05:36:25.218Z,38.87
2018-01-14T05:38:52.735Z,41.13
2018-01-14T05:41:20.234Z,38.20
2018-01-14T05:43:47.760Z,39.77
2018-01-14T05:46:15.270Z,42.10
2018-01-14T05:48:42.785Z,43.47
2018-01-14T05:51:10.283Z,37.13
2018-01-14T05:53:37.794Z,40.47
2018-01-14T05:56:05.294Z,39.87
2018-01-14T05:58:33.134Z,43.37
2018-01-14T06:01:00.699Z,44.43
2018-01-14T06:03:28.222Z,41.50
2018-01-14T06:05:55.742Z,39.40
2018-01-14T06:08:23.258Z,46.23
2018-01-14T06:10:50.780Z,43.00
2018-01-14T06:13:18.286Z,42.53
2018-01-14T06:15:45.802Z,39.90
2018-01-14T06:18:13.314Z,38.43
2018-01-14T06:20:40.856Z,41.63
2018-01-14T06:23:08.374Z,43.73
2018-01-14T06:25:35.899Z,41.40
2018-01-14T06:28:03.410Z,44.37
2018-01-14T06:30:30.921Z,46.77
2018-01-14T06:32:58.426Z,44.00
2018-01-14T06:35:25.952Z,45.07
2018-01-14T06:37:53.463Z,44.63
2018-01-14T06:40:20.998Z,43.70
2018-01-14T06:42:49.428Z,43.63
2018-01-14T06:45:16.944Z,38.03
2018-01-14T06:47:44.458Z,41.27
2018-01-14T06:50:11.987Z,42.97
2018-01-14T06:52:39.510Z,43.77
2018-01-14T06:55:07.049Z,48.03
2018-01-14T06:57:34.580Z,48.30
2018-01-14T07:00:02.095Z,40.33
2018-01-14T07:02:29.650Z,43.93
2018-01-14T07:04:57.155Z,45.53
2018-01-14T07:07:24.724Z,47.33
2018-01-14T07:09:52.226Z,40.47
2018-01-14T07:12:19.759Z,46.40
2018-01-14T07:14:47.262Z,46.57
2018-01-14T07:17:14.810Z,46.07
2018-01-14T07:19:42.358Z,45.53
2018-01-14T07:22:09.888Z,45.03
2018-01-14T07:24:37.416Z,44.70
2018-01-14T07:27:04.937Z,42.93
2018-01-14T07:29:32.469Z,43.27
2018-01-14T07:31:59.996Z,43.93
2018-01-14T07:34:27.551Z,49.77
2018-01-14T07:36:55.114Z,48.67
2018-01-14T07:39:22.628Z,46.53
2018-01-14T07:41:50.172Z,44.07
2018-01-14T07:44:17.706Z,41.33
2018-01-14T07:46:45.302Z,41.87
2018-01-14T07:49:12.811Z,46.97
2018-01-14T07:51:40.359Z,45.03
2018-01-14T07:54:07.879Z,42.13
2018-01-14T07:56:35.448Z,46.57
2018-01-14T07:59:02.954Z,47.43
2018-01-14T08:01:30.475Z,46.70
2018-01-14T08:03:57.983Z,49.50
2018-01-14T08:06:25.495Z,42.50
2018-01-14T08:08:53.028Z,49.37
2018-01-14T08:11:20.569Z,48.57
2018-01-14T08:13:48.090Z,47.03
2018-01-14T08:16:15.601Z,43.33
2018-01-14T08:18:43.118Z,45.07
2018-01-14T08:21:10.634Z,42.80
2018-01-14T08:23:38.151Z,43.53
2018-01-14T08:26:05.661Z,44.97
2018-01-14T08:28:33.168Z,42.17
2018-01-14T08:31:00.686Z,42.77
2018-01-14T08:33:28.254Z,38.57
2018-01-14T08:35:55.759Z,41.83
2018-01-14T08:38:23.334Z,37.97
2018-01-14T08:40:50.842Z,42.90
2018-01-14T08:43:18.502Z,42.30
2018-01-14T08:45:46.002Z,44.20
2018-01-14T08:48:13.506Z,41.33
2018-01-14T08:50:41.010Z,42.50
2018-01-14T08:53:08.517Z,43.57
2018-01-14T08:55:36.018Z,38.13
2018-01-14T08:58:04.076Z,42.07
2018-01-14T09:00:31.585Z,39.17
2018-01-14T09:02:59.182Z,42.37
2018-01-14T09:05:26.700Z,44.87
2018-01-14T09:07:54.198Z,38.67
2018-01-14T09:10:21.736Z,44.97
2018-01-14T09:12:49.246Z,41.57
2018-01-14T09:15:16.754Z,40.20
2018-01-14T09:17:44.297Z,42.60
2018-01-14T09:20:11.838Z,40.80
2018-01-14T09:22:39.346Z,36.37
2018-01-14T09:25:06.854Z,41.10
2018-01-14T09:27:34.378Z,39.53
2018-01-14T09:30:01.896Z,38.87
2018-01-14T09:32:29.414Z,40.67
2018-01-14T09:34:56.914Z,42.80
2018-01-14T09:37:24.436Z,43.10
2018-01-14T09:39:51.983Z,37.80
2018-01-14T09:42:19.480Z,43.43
2018-01-14T09:44:47.002Z,37.90
2018-01-14T09:47:14.520Z,37.93
2018-01-14T09:49:42.031Z,42.50
2018-01-14T09:52:09.566Z,38.23
2018-01-14T09:54:38.282Z,42.00
2018-01-14T09:57:05.807Z,38.30
2018-01-14T09:59:33.316Z,42.77
2018-01-14T10:02:00.840Z,38.93
2018-01-14T10:04:28.358Z,39.50
2018-01-14T10:06:55.894Z,37.90
2018-01-14T10:09:23.451Z,40.03
2018-01-14T10:11:50.982Z,37.70
2018-01-14T10:14:18.520Z,41.57
2018-01-14T10:16:46.052Z,46.43
2018-01-14T10:19:13.554Z,40.77
2018-01-14T10:21:41.098Z,39.07
2018-01-14T10:24:08.605Z,40.83
2018-01-14T10:26:36.135Z,43.40
2018-01-14T10:29:03.664Z,42.80
2018-01-14T10:31:31.178Z,43.87
2018-01-14T10:33:58.726Z,43.87
2018-01-14T10:36:27.143Z,43.93
2018-01-14T10:38:54.650Z,42.40
2018-01-14T10:41:22.171Z,44.07
2018-01-14T10:43:49.747Z,41.70
2018-01-14T10:46:17.274Z,41.80
2018-01-14T10:48:44.794Z,43.00
2018-01-14T10:51:12.324Z,42.50
2018-01-14T10:53:40.191Z,44.50
2018-01-14T10:56:07.727Z,45.37
2018-01-14T10:58:35.232Z,43.37
2018-01-14T11:01:02.810Z,48.80
2018-01-14T11:03:30.330Z,43.10
2018-01-14T11:05:57.841Z,44.00
2018-01-14T11:08:27.718Z,42.93
2018-01-14T11:10:55.779Z,47.97
2018-01-14T11:13:23.301Z,44.47
2018-01-14T11:15:50.817Z,41.83
2018-01-14T11:18:18.336Z,40.97
2018-01-14T11:20:45.862Z,39.43
2018-01-14T11:23:13.415Z,41.23
2018-01-14T11:25:41.000Z,41.80
2018-01-14T11:28:08.534Z,43.30
2018-01-14T11:30:36.057Z,44.80
2018-01-14T11:33:03.787Z,41.00
2018-01-14T11:35:31.320Z,45.23
2018-01-14T11:37:58.833Z,39.27
2018-01-14T11:40:26.358Z,41.37
2018-01-14T11:42:53.877Z,41.93
2018-01-14T11:45:21.398Z,41.87
2018-01-14T11:47:48.927Z,43.97
2018-01-14T11:50:16.470Z,41.33
2018-01-14T11:52:44.015Z,44.17
2018-01-14T11:55:11.522Z,44.57
2018-01-14T11:57:39.034Z,45.57
2018-01-14T12:00:06.593Z,44.67
2018-01-14T12:02:34.083Z,45.03
2018-01-14T12:05:01.593Z,41.63
2018-01-14T12:07:29.094Z,42.90
2018-01-14T12:09:56.618Z,42.07
2018-01-14T12:12:24.142Z,39.43
2018-01-14T12:14:51.651Z,50.13
2018-01-14T12:17:20.101Z,41.90
2018-01-14T12:19:48.218Z,44.37
2018-01-14T12:22:15.826Z,46.57
2018-01-14T12:24:43.358Z,46.43
2018-01-14T12:27:10.866Z,45.43
2018-01-14T12:29:38.397Z,47.40
2018-01-14T12:32:05.924Z,45.97
2018-01-14T12:34:38.400Z,43.97
2018-01-14T12:37:05.942Z,47.17
2018-01-14T12:39:33.486Z,48.23
2018-01-14T12:42:01.011Z,45.47
2018-01-14T12:44:28.543Z,38.43
2018-01-14T12:46:56.060Z,42.97
2018-01-14T12:49:23.635Z,46.53
2018-01-14T12:51:51.116Z,45.23
2018-01-14T12:54:18.652Z,43.60
2018-01-14T12:56:46.165Z,48.57
2018-01-14T12:59:13.691Z,41.93
2018-01-14T13:01:41.198Z,48.00
2018-01-14T13:04:08.787Z,45.13
2018-01-14T13:06:36.319Z,47.07
2018-01-14T13:09:03.902Z,44.90
2018-01-14T13:11:31.418Z,45.73
2018-01-14T13:13:58.954Z,43.30
2018-01-14T13:16:26.493Z,43.60
2018-01-14T13:18:54.016Z,45.27
2018-01-14T13:21:21.740Z,44.43
2018-01-14T13:23:49.246Z,40.57
2018-01-14T13:26:16.770Z,41.60
2018-01-14T13:28:44.332Z,40.53
2018-01-14T13:31:11.867Z,45.97
2018-01-14T13:33:39.409Z,43.03
2018-01-14T13:36:06.922Z,41.17
2018-01-14T13:38:34.459Z,38.43
2018-01-14T13:41:02.012Z,40.30
2018-01-14T13:43:29.580Z,41.40
2018-01-14T13:45:57.114Z,40.00
2018-01-14T13:50:58.469Z,35.23
2018-01-14T13:53:25.991Z,39.70
2018-01-14T13:55:53.533Z,38.90
2018-01-14T13:58:21.059Z,44.07
2018-01-14T14:00:48.582Z,38.23
2018-01-14T14:03:16.094Z,41.10
2018-01-14T14:05:43.619Z,39.97
2018-01-14T14:08:11.136Z,38.87
2018-01-14T14:10:38.659Z,41.60
2018-01-14T14:13:06.171Z,38.43
2018-01-14T14:15:33.682Z,38.03
2018-01-14T14:18:01.194Z,38.03
2018-01-14T14:20:28.711Z,42.10
2018-01-14T14:22:56.225Z,39.63
2018-01-14T14:25:23.735Z,39.10
2018-01-14T14:27:51.251Z,45.10
2018-01-14T14:30:18.762Z,40.80
2018-01-14T14:32:46.278Z,40.00
2018-01-14T14:35:13.778Z,36.97
2018-01-14T14:37:41.296Z,41.30
2018-01-14T14:40:08.819Z,36.53
2018-01-14T14:42:36.339Z,36.67
2018-01-14T14:45:03.870Z,39.50
2018-01-14T14:47:31.370Z,39.67
2018-01-14T14:49:59.339Z,44.27
2018-01-14T14:52:26.854Z,39.03
2018-01-14T14:54:54.368Z,37.07
2018-01-14T14:57:22.270Z,39.30
2018-01-14T14:59:49.793Z,36.00
2018-01-14T15:02:17.327Z,38.67
2018-01-14T15:04:44.832Z,40.70
2018-01-14T15:07:12.366Z,45.07
2018-01-14T15:09:39.870Z,38.07
2018-01-14T15:12:07.401Z,39.10
2018-01-14T15:14:34.926Z,36.80
2018-01-14T15:17:02.450Z,39.50
2018-01-14T15:19:29.974Z,36.27
2018-01-14T15:21:57.480Z,40.77
2018-01-14T15:24:25.001Z,43.00
2018-01-14T15:26:52.510Z,39.40
2018-01-14T15:29:20.021Z,36.10
2018-01-14T15:31:47.552Z,42.03
2018-01-14T15:34:15.054Z,38.23
2018-01-14T15:36:42.585Z,37.67
2018-01-14T15:39:10.110Z,43.00
2018-01-14T15:41:37.626Z,38.70
2018-01-14T15:44:05.145Z,34.57
2018-01-14T15:46:32.646Z,40.97
2018-01-14T15:49:00.179Z,37.67
2018-01-14T15:51:27.696Z,38.40
2018-01-14T15:53:55.211Z,40.30
2018-01-14T15:56:22.728Z,35.00
2018-01-14T15:58:50.246Z,38.57
2018-01-14T16:01:17.789Z,38.43
2018-01-14T16:03:45.286Z,40.97
2018-01-14T16:06:12.808Z,37.73
2018-01-14T16:08:40.331Z,46.27
2018-01-14T16:11:07.833Z,39.30
2018-01-14T16:13:35.366Z,42.17
2018-01-14T16:16:02.896Z,36.83
2018-01-14T16:18:30.405Z,35.10
2018-01-14T16:20:57.941Z,37.10
2018-01-14T16:23:25.451Z,36.57
2018-01-14T16:25:52.981Z,38.50
2018-01-14T16:28:20.502Z,39.67
2018-01-14T16:30:48.011Z,35.03
2018-01-14T16:33:15.544Z,35.27
2018-01-14T16:35:43.058Z,33.43
2018-01-14T16:38:10.580Z,39.30
2018-01-14T16:40:38.097Z,33.97
2018-01-14T16:43:05.606Z,33.67
2018-01-14T16:45:33.116Z,38.10
2018-01-14T16:48:00.626Z,34.77
2018-01-14T16:50:28.136Z,36.27
2018-01-14T16:52:55.647Z,43.70
2018-01-14T16:55:23.153Z,33.17
2018-01-14T16:57:50.662Z,33.90
2018-01-14T17:00:18.167Z,34.20
2018-01-14T17:02:45.678Z,35.30
2018-01-14T17:05:13.286Z,32.97
2018-01-14T17:07:40.798Z,37.40
2018-01-14T17:10:08.414Z,35.77
2018-01-14T17:12:35.922Z,34.10
2018-01-14T17:15:03.463Z,36.37
2018-01-14T17:17:30.994Z,34.37
2018-01-14T17:19:58.504Z,37.33
2018-01-14T17:22:26.111Z,37.47
2018-01-14T17:24:53.633Z,36.50
2018-01-14T17:27:21.151Z,32.53
2018-01-14T17:29:48.694Z,33.50
2018-01-14T17:32:16.215Z,38.43
2018-01-14T17:34:43.730Z,32.17
2018-01-14T17:37:11.306Z,36.23
2018-01-14T17:39:38.828Z,37.20
2018-01-14T17:42:06.339Z,33.63
2018-01-14T17:44:33.854Z,31.60
2018-01-14T17:47:01.363Z,33.23
2018-01-14T17:49:32.446Z,36.80
2018-01-14T17:52:02.044Z,36.93
2018-01-14T17:54:29.570Z,36.87
2018-01-14T17:56:57.094Z,35.47
2018-01-14T17:59:24.611Z,31.10
2018-01-14T18:01:52.139Z,35.13
2018-01-14T18:04:19.671Z,34.50
2018-01-14T18:06:47.180Z,39.20
2018-01-14T18:09:14.715Z,35.63
2018-01-14T18:11:42.223Z,36.07
2018-01-14T18:14:09.757Z,33.27
2018-01-14T18:16:37.271Z,37.87
2018-01-14T18:19:04.790Z,38.13
2018-01-14T18:21:32.329Z,34.70
2018-01-14T18:23:59.839Z,34.40
2018-01-14T18:26:27.411Z,33.47
2018-01-14T18:28:54.924Z,36.77
2018-01-14T18:31:22.497Z,35.83
2018-01-14T18:33:49.991Z,40.17
2018-01-14T18:36:17.503Z,37.10
2018-01-14T18:38:45.035Z,41.37
2018-01-14T18:41:12.574Z,37.83
2018-01-14T18:43:40.086Z,34.47
2018-01-14T18:46:10.383Z,36.50
2018-01-14T18:48:37.899Z,37.23
2018-01-14T18:51:05.526Z,44.40
2018-01-14T18:53:33.049Z,39.17
2018-01-14T18:56:00.566Z,35.50
2018-01-14T18:58:28.147Z,35.27
2018-01-14T19:00:55.673Z,33.97
2018-01-14T19:03:23.232Z,37.30
2018-01-14T19:05:50.753Z,38.27
2018-01-14T19:08:18.297Z,37.47
2018-01-14T19:10:45.814Z,38.00
2018-01-14T19:13:13.343Z,36.90
2018-01-14T19:15:40.868Z,37.30
2018-01-14T19:18:08.430Z,38.23
2018-01-14T19:20:36.000Z,36.87
2018-01-14T19:23:03.555Z,38.20
2018-01-14T19:25:31.076Z,34.73
2018-01-14T19:27:58.628Z,35.80
2018-01-14T19:30:26.175Z,36.70
2018-01-14T19:32:53.682Z,36.20
2018-01-14T19:35:21.217Z,40.83
2018-01-14T19:37:48.722Z,38.40
2018-01-14T19:40:16.245Z,38.93
2018-01-14T19:42:43.774Z,43.17
2018-01-14T19:45:11.330Z,36.37
2018-01-14T19:47:38.850Z,37.93
2018-01-14T19:50:06.433Z,40.23
2018-01-14T19:52:33.912Z,39.37
2018-01-14T19:55:01.430Z,43.67
2018-01-14T19:57:28.979Z,40.60
2018-01-14T19:59:56.501Z,42.40
2018-01-14T20:02:24.022Z,39.53
2018-01-14T20:04:51.563Z,39.00
2018-01-14T20:07:19.093Z,38.57
2018-01-14T20:09:46.641Z,39.03
2018-01-14T20:12:14.166Z,34.90
2018-01-14T20:14:41.680Z,38.50
2018-01-14T20:17:09.219Z,40.93
2018-01-14T20:19:36.722Z,40.47
2018-01-14T20:22:04.251Z,39.17
2018-01-14T20:24:31.785Z,38.80
2018-01-14T20:26:59.303Z,41.63
2018-01-14T20:29:26.833Z,45.57
2018-01-14T20:31:54.366Z,38.57
2018-01-14T20:34:21.926Z,44.40
2018-01-14T20:36:49.463Z,40.73
2018-01-14T20:39:16.971Z,41.53
2018-01-14T20:41:44.478Z,38.40
2018-01-14T20:44:17.512Z,42.83
2018-01-14T20:46:45.023Z,40.93
2018-01-14T20:49:12.528Z,42.47
2018-01-14T20:51:40.227Z,42.37
2018-01-14T20:54:07.762Z,45.50
2018-01-14T20:56:35.268Z,38.97
2018-01-14T20:59:02.794Z,41.73
2018-01-14T21:01:30.351Z,36.37
2018-01-14T21:03:57.883Z,44.57
2018-01-14T21:06:25.409Z,40.43
2018-01-14T21:08:52.951Z,42.87
2018-01-14T21:11:20.487Z,45.77
2018-01-14T21:13:48.020Z,43.30
2018-01-14T21:16:15.541Z,43.33
2018-01-14T21:18:43.072Z,44.77
2018-01-14T21:21:10.575Z,43.43
2018-01-14T21:23:38.838Z,42.27
2018-01-14T21:26:06.375Z,39.43
2018-01-14T21:28:33.882Z,40.67
2018-01-14T21:31:01.435Z,39.43
2018-01-14T21:33:28.938Z,38.93
2018-01-14T21:35:56.456Z,45.23
2018-01-14T21:38:23.977Z,42.43
2018-01-14T21:40:51.500Z,50.37
2018-01-14T21:43:19.014Z,39.57
2018-01-14T21:45:47.410Z,45.93
2018-01-14T21:48:14.946Z,42.77
2018-01-14T21:50:42.477Z,44.70
2018-01-14T21:53:10.062Z,40.37
2018-01-14T21:55:37.555Z,42.97
2018-01-14T21:58:05.094Z,42.87
2018-01-14T22:00:32.616Z,44.03
2018-01-14T22:03:00.130Z,45.57
2018-01-14T22:05:27.674Z,40.80
2018-01-14T22:07:55.210Z,40.30
2018-01-14T22:10:22.762Z,49.43
2018-01-14T22:12:50.326Z,43.40
2018-01-14T22:15:17.830Z,46.30
2018-01-14T22:17:45.379Z,39.00
2018-01-14T22:20:12.910Z,44.90
2018-01-14T22:22:40.451Z,44.80
2018-01-14T22:25:07.989Z,41.90
2018-01-14T22:27:35.506Z,44.47
2018-01-14T22:30:02.311Z,39.50
2018-01-14T22:32:29.846Z,39.23
2018-01-14T22:34:57.394Z,46.93
2018-01-14T22:37:24.914Z,43.43
2018-01-14T22:39:52.449Z,38.90
2018-01-14T22:42:19.982Z,44.83
2018-01-14T22:44:47.512Z,42.23
2018-01-14T22:47:15.199Z,44.27
2018-01-14T22:49:42.710Z,42.77
2018-01-14T22:52:10.217Z,39.53
2018-01-14T22:54:37.730Z,39.30
2018-01-14T22:57:05.303Z,43.50
2018-01-14T22:59:32.892Z,42.07
2018-01-14T23:02:00.419Z,46.47
2018-01-14T23:04:27.937Z,45.27
2018-01-14T23:06:55.454Z,43.77
2018-01-14T23:09:22.986Z,43.13
2018-01-14T23:11:50.496Z,44.50
2018-01-14T23:14:18.013Z,43.10
2018-01-14T23:16:45.538Z,44.67
2018-01-14T23:19:13.047Z,38.53
2018-01-14T23:21:40.586Z,40.57
2018-01-14T23:24:08.118Z,38.10
2018-01-14T23:26:35.662Z,44.13
2018-01-14T23:29:03.166Z,46.77
2018-01-14T23:31:30.674Z,42.80
2018-01-14T23:33:58.212Z,42.57
2018-01-14T23:36:25.761Z,42.77
2018-01-14T23:38:53.274Z,42.20
2018-01-14T23:41:20.788Z,39.27
2018-01-14T23:43:48.319Z,42.87
2018-01-14T23:46:15.834Z,38.20
2018-01-14T23:48:43.370Z,40.07
2018-01-14T23:51:11.813Z,44.93
2018-01-14T23:53:39.339Z,45.53
2018-01-14T23:56:06.878Z,39.97
2018-01-14T23:58:34.406Z,46.87
